sensor_id;sensor_type;location;lat;lon;timestamp;P1;durP1;ratioP1;P2;durP2;ratioP2
85912;SDS011;76451;55.848;37.638;2024-03-23T00:51:27;28.05;;;15.20;;
85912;SDS011;76451;55.848;37.638;2024-03-23T00:52:18;25.48;;;15.05;;
85912;SDS011;76451;55.848;37.638;2024-03-23T00:52:23;25.63;;;15.00;;
85912;SDS011;76451;55.848;37.638;2024-03-23T00:52:34;24.48;;;14.77;;
85912;SDS011;76451;55.848;37.638;2024-03-23T00:52:57;25.77;;;14.53;;
85912;SDS011;76451;55.848;37.638;2024-03-23T00:53:02;27.55;;;14.63;;
85912;SDS011;76451;55.848;37.638;2024-03-23T00:53:07;27.50;;;15.30;;
85912;SDS011;76451;55.848;37.638;2024-03-23T00:54:01;24.00;;;13.47;;
85912;SDS011;76451;55.848;37.638;2024-03-23T00:54:06;23.77;;;13.35;;
85912;SDS011;76451;55.848;37.638;2024-03-23T00:54:12;23.77;;;13.60;;
85912;SDS011;76451;55.848;37.638;2024-03-23T00:54:17;23.53;;;13.57;;
85912;SDS011;76451;55.848;37.638;2024-03-23T00:54:22;23.50;;;13.43;;
85912;SDS011;76451;55.848;37.638;2024-03-23T00:54:27;23.75;;;13.60;;
85912;SDS011;76451;55.848;37.638;2024-03-23T00:54:33;25.53;;;14.80;;
85912;SDS011;76451;55.848;37.638;2024-03-23T00:54:38;27.10;;;14.90;;
85912;SDS011;76451;55.848;37.638;2024-03-23T00:54:43;26.20;;;14.90;;
85912;SDS011;76451;55.848;37.638;2024-03-23T00:54:48;25.98;;;15.10;;
85912;SDS011;76451;55.848;37.638;2024-03-23T00:54:54;26.63;;;15.10;;
85912;SDS011;76451;55.848;37.638;2024-03-23T00:55:00;27.43;;;14.90;;
85912;SDS011;76451;55.848;37.638;2024-03-23T00:55:05;26.83;;;14.83;;
85912;SDS011;76451;55.848;37.638;2024-03-23T00:55:11;26.17;;;14.73;;
85912;SDS011;76451;55.848;37.638;2024-03-23T00:55:17;27.03;;;14.70;;
85912;SDS011;76451;55.848;37.638;2024-03-23T00:55:22;24.13;;;13.13;;
85912;SDS011;76451;55.848;37.638;2024-03-23T00:55:27;22.97;;;12.60;;
85912;SDS011;76451;55.848;37.638;2024-03-23T00:55:32;22.17;;;12.30;;
85912;SDS011;76451;55.848;37.638;2024-03-23T00:55:38;21.50;;;11.73;;
85912;SDS011;76451;55.848;37.638;2024-03-23T00:55:43;20.20;;;11.13;;
85912;SDS011;76451;55.848;37.638;2024-03-23T00:55:48;22.00;;;12.13;;
85912;SDS011;76451;55.848;37.638;2024-03-23T00:55:54;23.23;;;13.23;;
85912;SDS011;76451;55.848;37.638;2024-03-23T00:55:59;22.35;;;12.82;;
85912;SDS011;76451;55.848;37.638;2024-03-23T00:56:04;21.43;;;12.33;;
85912;SDS011;76451;55.848;37.638;2024-03-23T00:56:10;20.33;;;11.80;;
85912;SDS011;76451;55.848;37.638;2024-03-23T00:56:15;20.05;;;11.45;;
85912;SDS011;76451;55.848;37.638;2024-03-23T00:56:20;17.87;;;10.27;;
85912;SDS011;76451;55.848;37.638;2024-03-23T00:56:26;17.60;;;10.00;;
85912;SDS011;76451;55.848;37.638;2024-03-23T00:56:31;18.80;;;10.75;;
85912;SDS011;76451;55.848;37.638;2024-03-23T00:56:36;19.83;;;11.67;;
85912;SDS011;76451;55.848;37.638;2024-03-23T00:56:41;20.80;;;12.47;;
85912;SDS011;76451;55.848;37.638;2024-03-23T00:56:47;22.23;;;12.97;;
85912;SDS011;76451;55.848;37.638;2024-03-23T00:56:52;23.35;;;13.90;;
85912;SDS011;76451;55.848;37.638;2024-03-23T00:56:58;24.07;;;14.13;;
85912;SDS011;76451;55.848;37.638;2024-03-23T00:57:03;24.17;;;14.17;;
85912;SDS011;76451;55.848;37.638;2024-03-23T00:57:08;24.67;;;14.27;;
85912;SDS011;76451;55.848;37.638;2024-03-23T00:57:13;24.17;;;14.07;;
85912;SDS011;76451;55.848;37.638;2024-03-23T00:57:19;24.37;;;14.00;;
85912;SDS011;76451;55.848;37.638;2024-03-23T00:57:24;24.47;;;14.17;;
85912;SDS011;76451;55.848;37.638;2024-03-23T00:57:29;24.52;;;13.95;;
85912;SDS011;76451;55.848;37.638;2024-03-23T00:57:35;23.93;;;13.43;;
85912;SDS011;76451;55.848;37.638;2024-03-23T00:57:40;22.73;;;12.33;;
85912;SDS011;76451;55.848;37.638;2024-03-23T00:57:45;22.13;;;11.98;;
85912;SDS011;76451;55.848;37.638;2024-03-23T00:57:51;20.87;;;11.77;;
85912;SDS011;76451;55.848;37.638;2024-03-23T00:57:56;20.50;;;12.07;;
85912;SDS011;76451;55.848;37.638;2024-03-23T00:58:01;21.07;;;12.37;;
85912;SDS011;76451;55.848;37.638;2024-03-23T00:58:06;22.88;;;13.02;;
85912;SDS011;76451;55.848;37.638;2024-03-23T00:58:12;23.80;;;13.80;;
85912;SDS011;76451;55.848;37.638;2024-03-23T00:58:17;24.90;;;14.40;;
85912;SDS011;76451;55.848;37.638;2024-03-23T00:58:22;25.92;;;14.80;;
85912;SDS011;76451;55.848;37.638;2024-03-23T00:58:28;26.57;;;14.73;;
85912;SDS011;76451;55.848;37.638;2024-03-23T00:58:33;26.43;;;15.17;;
85912;SDS011;76451;55.848;37.638;2024-03-23T00:58:38;26.33;;;15.47;;
85912;SDS011;76451;55.848;37.638;2024-03-23T00:58:44;25.65;;;15.05;;
85912;SDS011;76451;55.848;37.638;2024-03-23T00:58:49;26.97;;;14.40;;
85912;SDS011;76451;55.848;37.638;2024-03-23T00:58:55;27.20;;;14.23;;
85912;SDS011;76451;55.848;37.638;2024-03-23T00:59:00;26.67;;;14.13;;
85912;SDS011;76451;55.848;37.638;2024-03-23T00:59:05;26.17;;;13.53;;
85912;SDS011;76451;55.848;37.638;2024-03-23T00:59:10;25.27;;;13.13;;
85912;SDS011;76451;55.848;37.638;2024-03-23T00:59:16;23.35;;;12.68;;
85912;SDS011;76451;55.848;37.638;2024-03-23T00:59:22;22.75;;;13.07;;
85912;SDS011;76451;55.848;37.638;2024-03-23T00:59:32;21.01;;;12.69;;
85912;SDS011;76451;55.848;37.638;2024-03-23T00:59:37;20.73;;;12.80;;
85912;SDS011;76451;55.848;37.638;2024-03-23T00:59:42;22.47;;;13.77;;
85912;SDS011;76451;55.848;37.638;2024-03-23T00:59:47;22.43;;;13.77;;
85912;SDS011;76451;55.848;37.638;2024-03-23T00:59:53;21.13;;;13.40;;
85912;SDS011;76451;55.848;37.638;2024-03-23T00:59:58;21.83;;;13.23;;
85912;SDS011;76451;55.848;37.638;2024-03-23T01:00:04;21.80;;;13.33;;
85912;SDS011;76451;55.848;37.638;2024-03-23T01:00:11;21.48;;;13.54;;
85912;SDS011;76451;55.848;37.638;2024-03-23T01:00:16;21.38;;;13.57;;
85912;SDS011;76451;55.848;37.638;2024-03-23T01:00:21;23.40;;;13.90;;
85912;SDS011;76451;55.848;37.638;2024-03-23T01:00:27;24.33;;;14.17;;
85912;SDS011;76451;55.848;37.638;2024-03-23T01:00:32;25.88;;;14.68;;
85912;SDS011;76451;55.848;37.638;2024-03-23T01:00:38;27.30;;;14.53;;
85912;SDS011;76451;55.848;37.638;2024-03-23T01:00:43;28.53;;;14.67;;
85912;SDS011;76451;55.848;37.638;2024-03-23T01:00:48;27.70;;;14.70;;
85912;SDS011;76451;55.848;37.638;2024-03-23T01:00:53;26.63;;;15.03;;
85912;SDS011;76451;55.848;37.638;2024-03-23T01:00:59;26.47;;;15.17;;
85912;SDS011;76451;55.848;37.638;2024-03-23T01:01:04;25.40;;;15.03;;
85912;SDS011;76451;55.848;37.638;2024-03-23T01:01:09;25.08;;;14.98;;
85912;SDS011;76451;55.848;37.638;2024-03-23T01:01:15;24.87;;;15.00;;
85912;SDS011;76451;55.848;37.638;2024-03-23T01:01:20;25.10;;;15.20;;
85912;SDS011;76451;55.848;37.638;2024-03-23T01:01:26;25.20;;;15.13;;
85912;SDS011;76451;55.848;37.638;2024-03-23T01:01:31;25.97;;;15.00;;
85912;SDS011;76451;55.848;37.638;2024-03-23T01:01:36;25.93;;;14.53;;
85912;SDS011;76451;55.848;37.638;2024-03-23T01:01:41;24.33;;;13.32;;
85912;SDS011;76451;55.848;37.638;2024-03-23T01:01:47;24.87;;;12.90;;
85912;SDS011;76451;55.848;37.638;2024-03-23T01:01:52;25.43;;;12.53;;
85912;SDS011;76451;55.848;37.638;2024-03-23T01:01:57;25.67;;;12.43;;
85912;SDS011;76451;55.848;37.638;2024-03-23T01:02:03;25.43;;;12.60;;
85912;SDS011;76451;55.848;37.638;2024-03-23T01:02:08;25.83;;;13.00;;
85912;SDS011;76451;55.848;37.638;2024-03-23T01:02:13;27.87;;;14.10;;
85912;SDS011;76451;55.848;37.638;2024-03-23T01:02:19;27.27;;;14.38;;
85912;SDS011;76451;55.848;37.638;2024-03-23T01:02:24;28.53;;;14.37;;
85912;SDS011;76451;55.848;37.638;2024-03-23T01:02:29;28.00;;;14.13;;
85912;SDS011;76451;55.848;37.638;2024-03-23T01:02:34;27.37;;;13.90;;
85912;SDS011;76451;55.848;37.638;2024-03-23T01:02:40;27.77;;;14.18;;
85912;SDS011;76451;55.848;37.638;2024-03-23T01:02:45;26.87;;;14.13;;
85912;SDS011;76451;55.848;37.638;2024-03-23T01:02:50;26.50;;;14.10;;
85912;SDS011;76451;55.848;37.638;2024-03-23T01:02:55;24.90;;;14.10;;
85912;SDS011;76451;55.848;37.638;2024-03-23T01:03:01;24.77;;;14.40;;
85912;SDS011;76451;55.848;37.638;2024-03-23T01:03:06;24.93;;;14.87;;
85912;SDS011;76451;55.848;37.638;2024-03-23T01:03:11;25.20;;;14.90;;
85912;SDS011;76451;55.848;37.638;2024-03-23T01:03:17;25.88;;;15.25;;
85912;SDS011;76451;55.848;37.638;2024-03-23T01:03:22;26.43;;;15.57;;
85912;SDS011;76451;55.848;37.638;2024-03-23T01:03:27;26.27;;;15.43;;
85912;SDS011;76451;55.848;37.638;2024-03-23T01:03:32;26.97;;;15.67;;
85912;SDS011;76451;55.848;37.638;2024-03-23T01:03:38;26.92;;;15.68;;
85912;SDS011;76451;55.848;37.638;2024-03-23T01:03:43;26.93;;;15.43;;
85912;SDS011;76451;55.848;37.638;2024-03-23T01:03:48;27.53;;;15.30;;
85912;SDS011;76451;55.848;37.638;2024-03-23T01:03:53;27.53;;;15.23;;
85912;SDS011;76451;55.848;37.638;2024-03-23T01:03:59;27.43;;;15.13;;
85912;SDS011;76451;55.848;37.638;2024-03-23T01:04:04;26.80;;;14.77;;
85912;SDS011;76451;55.848;37.638;2024-03-23T01:04:09;26.13;;;14.57;;
85912;SDS011;76451;55.848;37.638;2024-03-23T01:04:15;25.00;;;14.37;;
85912;SDS011;76451;55.848;37.638;2024-03-23T01:04:20;23.90;;;14.05;;
85912;SDS011;76451;55.848;37.638;2024-03-23T01:04:25;25.03;;;14.47;;
85912;SDS011;76451;55.848;37.638;2024-03-23T01:04:31;25.87;;;14.93;;
85912;SDS011;76451;55.848;37.638;2024-03-23T01:04:36;26.17;;;15.17;;
85912;SDS011;76451;55.848;37.638;2024-03-23T01:04:41;26.17;;;14.93;;
85912;SDS011;76451;55.848;37.638;2024-03-23T01:04:46;26.83;;;15.00;;
85912;SDS011;76451;55.848;37.638;2024-03-23T01:04:52;25.53;;;14.67;;
85912;SDS011;76451;55.848;37.638;2024-03-23T01:04:57;24.10;;;14.37;;
85912;SDS011;76451;55.848;37.638;2024-03-23T01:05:02;23.58;;;13.95;;
85912;SDS011;76451;55.848;37.638;2024-03-23T01:05:08;23.83;;;13.83;;
85912;SDS011;76451;55.848;37.638;2024-03-23T01:05:13;23.40;;;14.00;;
85912;SDS011;76451;55.848;37.638;2024-03-23T01:05:18;23.05;;;13.95;;
85912;SDS011;76451;55.848;37.638;2024-03-23T01:05:24;24.77;;;14.30;;
85912;SDS011;76451;55.848;37.638;2024-03-23T01:05:29;25.47;;;14.13;;
85912;SDS011;76451;55.848;37.638;2024-03-23T01:05:34;24.67;;;13.93;;
85912;SDS011;76451;55.848;37.638;2024-03-23T01:05:39;23.47;;;13.83;;
85912;SDS011;76451;55.848;37.638;2024-03-23T01:05:45;23.80;;;13.77;;
85912;SDS011;76451;55.848;37.638;2024-03-23T01:05:50;23.80;;;13.90;;
85912;SDS011;76451;55.848;37.638;2024-03-23T01:05:59;23.90;;;14.13;;
85912;SDS011;76451;55.848;37.638;2024-03-23T01:06:05;24.51;;;14.23;;
85912;SDS011;76451;55.848;37.638;2024-03-23T01:06:10;26.20;;;14.33;;
85912;SDS011;76451;55.848;37.638;2024-03-23T01:06:15;26.17;;;14.43;;
85912;SDS011;76451;55.848;37.638;2024-03-23T01:06:20;27.33;;;14.80;;
85912;SDS011;76451;55.848;37.638;2024-03-23T01:06:26;26.87;;;14.63;;
85912;SDS011;76451;55.848;37.638;2024-03-23T01:06:31;26.23;;;14.37;;
85912;SDS011;76451;55.848;37.638;2024-03-23T01:06:36;25.23;;;14.27;;
85912;SDS011;76451;55.848;37.638;2024-03-23T01:06:42;24.20;;;13.63;;
85912;SDS011;76451;55.848;37.638;2024-03-23T01:06:47;23.77;;;12.97;;
85912;SDS011;76451;55.848;37.638;2024-03-23T01:06:52;24.13;;;12.93;;
85912;SDS011;76451;55.848;37.638;2024-03-23T01:06:57;24.33;;;13.10;;
85912;SDS011;76451;55.848;37.638;2024-03-23T01:07:03;25.35;;;13.35;;
85912;SDS011;76451;55.848;37.638;2024-03-23T01:07:08;26.60;;;14.17;;
85912;SDS011;76451;55.848;37.638;2024-03-23T01:07:14;26.95;;;14.60;;
85912;SDS011;76451;55.848;37.638;2024-03-23T01:07:19;26.93;;;14.87;;
85912;SDS011;76451;55.848;37.638;2024-03-23T01:07:24;27.23;;;14.70;;
85912;SDS011;76451;55.848;37.638;2024-03-23T01:07:30;29.48;;;14.95;;
85912;SDS011;76451;55.848;37.638;2024-03-23T01:07:35;30.17;;;15.13;;
85912;SDS011;76451;55.848;37.638;2024-03-23T01:07:40;29.60;;;14.93;;
85912;SDS011;76451;55.848;37.638;2024-03-23T01:07:45;28.80;;;14.70;;
85912;SDS011;76451;55.848;37.638;2024-03-23T01:07:51;27.92;;;14.48;;
85912;SDS011;76451;55.848;37.638;2024-03-23T01:07:56;26.23;;;14.20;;
85912;SDS011;76451;55.848;37.638;2024-03-23T01:08:01;23.43;;;13.70;;
85912;SDS011;76451;55.848;37.638;2024-03-23T01:08:07;22.52;;;13.52;;
85912;SDS011;76451;55.848;37.638;2024-03-23T01:08:12;23.03;;;13.90;;
85912;SDS011;76451;55.848;37.638;2024-03-23T01:08:17;24.07;;;14.13;;
85912;SDS011;76451;55.848;37.638;2024-03-23T01:08:23;24.37;;;14.50;;
85912;SDS011;76451;55.848;37.638;2024-03-23T01:08:28;24.45;;;14.60;;
85912;SDS011;76451;55.848;37.638;2024-03-23T01:08:33;25.13;;;14.87;;
85912;SDS011;76451;55.848;37.638;2024-03-23T01:08:38;25.87;;;15.17;;
85912;SDS011;76451;55.848;37.638;2024-03-23T01:08:44;26.63;;;15.23;;
85912;SDS011;76451;55.848;37.638;2024-03-23T01:08:49;26.60;;;15.45;;
85912;SDS011;76451;55.848;37.638;2024-03-23T01:08:54;26.70;;;15.33;;
85912;SDS011;76451;55.848;37.638;2024-03-23T01:09:00;26.57;;;15.17;;
85912;SDS011;76451;55.848;37.638;2024-03-23T01:09:05;25.53;;;14.07;;
85912;SDS011;76451;55.848;37.638;2024-03-23T01:09:11;24.90;;;13.52;;
85912;SDS011;76451;55.848;37.638;2024-03-23T01:09:16;24.70;;;13.30;;
85912;SDS011;76451;55.848;37.638;2024-03-23T01:09:21;24.30;;;13.47;;
85912;SDS011;76451;55.848;37.638;2024-03-23T01:09:27;24.60;;;13.77;;
85912;SDS011;76451;55.848;37.638;2024-03-23T01:09:33;25.43;;;14.57;;
85912;SDS011;76451;55.848;37.638;2024-03-23T01:09:38;26.07;;;15.37;;
85912;SDS011;76451;55.848;37.638;2024-03-23T01:09:43;26.10;;;15.43;;
85912;SDS011;76451;55.848;37.638;2024-03-23T01:09:49;25.17;;;15.03;;
85912;SDS011;76451;55.848;37.638;2024-03-23T01:09:54;25.30;;;15.00;;
85912;SDS011;76451;55.848;37.638;2024-03-23T01:09:59;25.42;;;14.82;;
85912;SDS011;76451;55.848;37.638;2024-03-23T01:10:04;25.63;;;14.73;;
85912;SDS011;76451;55.848;37.638;2024-03-23T01:10:10;25.23;;;14.87;;
85912;SDS011;76451;55.848;37.638;2024-03-23T01:10:15;25.30;;;14.77;;
85912;SDS011;76451;55.848;37.638;2024-03-23T01:10:20;24.80;;;14.68;;
85912;SDS011;76451;55.848;37.638;2024-03-23T01:10:26;24.50;;;14.37;;
85912;SDS011;76451;55.848;37.638;2024-03-23T01:10:31;24.43;;;14.27;;
85912;SDS011;76451;55.848;37.638;2024-03-23T01:10:36;24.93;;;14.20;;
85912;SDS011;76451;55.848;37.638;2024-03-23T01:10:41;24.50;;;13.88;;
85912;SDS011;76451;55.848;37.638;2024-03-23T01:10:54;23.73;;;13.40;;
85912;SDS011;76451;55.848;37.638;2024-03-23T01:11:00;24.63;;;13.23;;
85912;SDS011;76451;55.848;37.638;2024-03-23T01:11:06;23.47;;;13.50;;
85912;SDS011;76451;55.848;37.638;2024-03-23T01:11:11;23.10;;;13.47;;
85912;SDS011;76451;55.848;37.638;2024-03-23T01:11:17;25.00;;;13.90;;
85912;SDS011;76451;55.848;37.638;2024-03-23T01:11:22;25.23;;;14.30;;
85912;SDS011;76451;55.848;37.638;2024-03-23T01:11:27;25.63;;;14.57;;
85912;SDS011;76451;55.848;37.638;2024-03-23T01:11:33;26.50;;;14.45;;
85912;SDS011;76451;55.848;37.638;2024-03-23T01:11:38;26.77;;;14.40;;
85912;SDS011;76451;55.848;37.638;2024-03-23T01:11:43;27.20;;;14.57;;
85912;SDS011;76451;55.848;37.638;2024-03-23T01:11:49;25.85;;;14.40;;
85912;SDS011;76451;55.848;37.638;2024-03-23T01:11:54;25.67;;;14.07;;
85912;SDS011;76451;55.848;37.638;2024-03-23T01:11:59;26.17;;;13.83;;
85912;SDS011;76451;55.848;37.638;2024-03-23T01:12:05;26.13;;;14.23;;
85912;SDS011;76451;55.848;37.638;2024-03-23T01:12:10;26.52;;;14.30;;
85912;SDS011;76451;55.848;37.638;2024-03-23T01:12:15;26.67;;;14.27;;
85912;SDS011;76451;55.848;37.638;2024-03-23T01:12:21;26.93;;;14.30;;
85912;SDS011;76451;55.848;37.638;2024-03-23T01:12:26;25.70;;;14.18;;
85912;SDS011;76451;55.848;37.638;2024-03-23T01:12:32;23.80;;;13.70;;
85912;SDS011;76451;55.848;37.638;2024-03-23T01:12:37;23.85;;;13.38;;
85912;SDS011;76451;55.848;37.638;2024-03-23T01:12:42;22.80;;;12.93;;
85912;SDS011;76451;55.848;37.638;2024-03-23T01:12:47;23.03;;;13.27;;
85912;SDS011;76451;55.848;37.638;2024-03-23T01:12:53;24.47;;;13.57;;
85912;SDS011;76451;55.848;37.638;2024-03-23T01:12:58;25.38;;;14.18;;
85912;SDS011;76451;55.848;37.638;2024-03-23T01:13:03;27.20;;;14.87;;
85912;SDS011;76451;55.848;37.638;2024-03-23T01:13:09;27.60;;;14.73;;
85912;SDS011;76451;55.848;37.638;2024-03-23T01:13:14;26.90;;;14.63;;
85912;SDS011;76451;55.848;37.638;2024-03-23T01:13:19;26.08;;;14.15;;
85912;SDS011;76451;55.848;37.638;2024-03-23T01:13:27;25.73;;;14.10;;
85912;SDS011;76451;55.848;37.638;2024-03-23T01:13:32;25.58;;;14.30;;
85912;SDS011;76451;55.848;37.638;2024-03-23T01:13:37;23.60;;;14.50;;
85912;SDS011;76451;55.848;37.638;2024-03-23T01:13:43;23.23;;;14.40;;
85912;SDS011;76451;55.848;37.638;2024-03-23T01:13:48;23.57;;;14.47;;
85912;SDS011;76451;55.848;37.638;2024-03-23T01:13:53;23.83;;;14.48;;
85912;SDS011;76451;55.848;37.638;2024-03-23T01:14:00;24.67;;;14.53;;
85912;SDS011;76451;55.848;37.638;2024-03-23T01:14:05;24.70;;;14.20;;
85912;SDS011;76451;55.848;37.638;2024-03-23T01:14:11;25.85;;;14.27;;
85912;SDS011;76451;55.848;37.638;2024-03-23T01:14:16;26.67;;;14.80;;
85912;SDS011;76451;55.848;37.638;2024-03-23T01:14:21;25.92;;;14.88;;
85912;SDS011;76451;55.848;37.638;2024-03-23T01:14:27;25.43;;;14.77;;
85912;SDS011;76451;55.848;37.638;2024-03-23T01:14:32;24.38;;;14.25;;
85912;SDS011;76451;55.848;37.638;2024-03-23T01:14:38;24.90;;;14.50;;
85912;SDS011;76451;55.848;37.638;2024-03-23T01:14:43;24.80;;;14.40;;
85912;SDS011;76451;55.848;37.638;2024-03-23T01:14:48;25.50;;;14.57;;
85912;SDS011;76451;55.848;37.638;2024-03-23T01:14:53;26.95;;;14.93;;
85912;SDS011;76451;55.848;37.638;2024-03-23T01:14:59;27.13;;;15.33;;
85912;SDS011;76451;55.848;37.638;2024-03-23T01:15:04;26.90;;;15.20;;
85912;SDS011;76451;55.848;37.638;2024-03-23T01:15:10;26.98;;;15.35;;
85912;SDS011;76451;55.848;37.638;2024-03-23T01:15:15;26.83;;;15.00;;
85912;SDS011;76451;55.848;37.638;2024-03-23T01:15:20;27.03;;;14.73;;
85912;SDS011;76451;55.848;37.638;2024-03-23T01:15:25;26.73;;;14.23;;
85912;SDS011;76451;55.848;37.638;2024-03-23T01:15:31;27.43;;;14.03;;
85912;SDS011;76451;55.848;37.638;2024-03-23T01:15:36;28.77;;;14.43;;
85912;SDS011;76451;55.848;37.638;2024-03-23T01:15:47;28.80;;;14.63;;
85912;SDS011;76451;55.848;37.638;2024-03-23T01:15:53;27.83;;;14.83;;
85912;SDS011;76451;55.848;37.638;2024-03-23T01:15:59;26.73;;;14.87;;
85912;SDS011;76451;55.848;37.638;2024-03-23T01:16:04;25.15;;;14.60;;
85912;SDS011;76451;55.848;37.638;2024-03-23T01:16:09;25.50;;;14.57;;
85912;SDS011;76451;55.848;37.638;2024-03-23T01:16:15;26.30;;;14.17;;
85912;SDS011;76451;55.848;37.638;2024-03-23T01:16:20;26.23;;;14.30;;
85912;SDS011;76451;55.848;37.638;2024-03-23T01:16:25;25.57;;;13.97;;
85912;SDS011;76451;55.848;37.638;2024-03-23T01:16:30;25.50;;;14.00;;
85912;SDS011;76451;55.848;37.638;2024-03-23T01:16:36;24.57;;;13.43;;
85912;SDS011;76451;55.848;37.638;2024-03-23T01:16:41;23.63;;;13.60;;
85912;SDS011;76451;55.848;37.638;2024-03-23T01:16:46;21.40;;;13.13;;
85912;SDS011;76451;55.848;37.638;2024-03-23T01:16:52;20.90;;;12.57;;
85912;SDS011;76451;55.848;37.638;2024-03-23T01:16:57;19.98;;;12.15;;
85912;SDS011;76451;55.848;37.638;2024-03-23T01:17:02;21.20;;;12.60;;
85912;SDS011;76451;55.848;37.638;2024-03-23T01:17:08;21.33;;;12.77;;
85912;SDS011;76451;55.848;37.638;2024-03-23T01:17:13;21.67;;;12.80;;
85912;SDS011;76451;55.848;37.638;2024-03-23T01:17:18;22.60;;;13.03;;
85912;SDS011;76451;55.848;37.638;2024-03-23T01:17:23;23.10;;;13.67;;
85912;SDS011;76451;55.848;37.638;2024-03-23T01:17:29;23.53;;;13.73;;
85912;SDS011;76451;55.848;37.638;2024-03-23T01:17:34;22.23;;;13.27;;
85912;SDS011;76451;55.848;37.638;2024-03-23T01:17:39;22.60;;;13.33;;
85912;SDS011;76451;55.848;37.638;2024-03-23T01:17:45;22.60;;;13.57;;
85912;SDS011;76451;55.848;37.638;2024-03-23T01:17:50;22.40;;;13.57;;
85912;SDS011;76451;55.848;37.638;2024-03-23T01:17:55;23.48;;;13.93;;
85912;SDS011;76451;55.848;37.638;2024-03-23T01:18:00;24.83;;;14.17;;
85912;SDS011;76451;55.848;37.638;2024-03-23T01:18:06;24.57;;;13.97;;
85912;SDS011;76451;55.848;37.638;2024-03-23T01:18:11;22.73;;;13.23;;
85912;SDS011;76451;55.848;37.638;2024-03-23T01:18:16;21.60;;;12.57;;
85912;SDS011;76451;55.848;37.638;2024-03-23T01:18:23;21.33;;;12.10;;
85912;SDS011;76451;55.848;37.638;2024-03-23T01:18:28;20.90;;;11.17;;
85912;SDS011;76451;55.848;37.638;2024-03-23T01:18:34;20.73;;;11.10;;
85912;SDS011;76451;55.848;37.638;2024-03-23T01:18:39;21.93;;;11.80;;
85912;SDS011;76451;55.848;37.638;2024-03-23T01:18:44;23.98;;;12.75;;
85912;SDS011;76451;55.848;37.638;2024-03-23T01:18:50;24.87;;;13.33;;
85912;SDS011;76451;55.848;37.638;2024-03-23T01:18:55;24.33;;;13.33;;
85912;SDS011;76451;55.848;37.638;2024-03-23T01:19:00;23.33;;;13.95;;
85912;SDS011;76451;55.848;37.638;2024-03-23T01:19:06;22.57;;;13.80;;
85912;SDS011;76451;55.848;37.638;2024-03-23T01:19:11;22.90;;;13.80;;
85912;SDS011;76451;55.848;37.638;2024-03-23T01:19:16;22.30;;;13.47;;
85912;SDS011;76451;55.848;37.638;2024-03-23T01:19:22;23.70;;;13.85;;
85912;SDS011;76451;55.848;37.638;2024-03-23T01:19:27;25.23;;;14.27;;
85912;SDS011;76451;55.848;37.638;2024-03-23T01:19:33;25.90;;;14.60;;
85912;SDS011;76451;55.848;37.638;2024-03-23T01:19:38;27.07;;;15.07;;
85912;SDS011;76451;55.848;37.638;2024-03-23T01:19:44;27.63;;;15.00;;
85912;SDS011;76451;55.848;37.638;2024-03-23T01:19:49;27.70;;;15.00;;
85912;SDS011;76451;55.848;37.638;2024-03-23T01:19:54;26.87;;;14.87;;
85912;SDS011;76451;55.848;37.638;2024-03-23T01:20:00;26.40;;;14.60;;
85912;SDS011;76451;55.848;37.638;2024-03-23T01:20:05;25.43;;;14.13;;
85912;SDS011;76451;55.848;37.638;2024-03-23T01:20:11;24.50;;;14.05;;
85912;SDS011;76451;55.848;37.638;2024-03-23T01:20:16;24.07;;;13.77;;
85912;SDS011;76451;55.848;37.638;2024-03-23T01:20:22;24.08;;;13.68;;
85912;SDS011;76451;55.848;37.638;2024-03-23T01:20:27;25.07;;;13.67;;
85912;SDS011;76451;55.848;37.638;2024-03-23T01:20:33;26.55;;;13.98;;
85912;SDS011;76451;55.848;37.638;2024-03-23T01:20:38;25.93;;;13.70;;
85912;SDS011;76451;55.848;37.638;2024-03-23T01:20:43;25.03;;;12.90;;
85912;SDS011;76451;55.848;37.638;2024-03-23T01:20:49;26.40;;;13.27;;
85912;SDS011;76451;55.848;37.638;2024-03-23T01:20:54;26.75;;;13.70;;
85912;SDS011;76451;55.848;37.638;2024-03-23T01:20:59;26.47;;;13.93;;
85912;SDS011;76451;55.848;37.638;2024-03-23T01:21:04;26.00;;;13.90;;
85912;SDS011;76451;55.848;37.638;2024-03-23T01:21:10;27.10;;;14.87;;
85912;SDS011;76451;55.848;37.638;2024-03-23T01:21:15;26.42;;;14.55;;
85912;SDS011;76451;55.848;37.638;2024-03-23T01:21:20;24.13;;;14.23;;
85912;SDS011;76451;55.848;37.638;2024-03-23T01:21:26;22.77;;;13.77;;
85912;SDS011;76451;55.848;37.638;2024-03-23T01:21:31;21.83;;;13.37;;
85912;SDS011;76451;55.848;37.638;2024-03-23T01:21:36;20.98;;;12.93;;
85912;SDS011;76451;55.848;37.638;2024-03-23T01:21:41;21.20;;;12.80;;
85912;SDS011;76451;55.848;37.638;2024-03-23T01:21:48;23.13;;;13.53;;
85912;SDS011;76451;55.848;37.638;2024-03-23T01:21:54;23.80;;;14.00;;
85912;SDS011;76451;55.848;37.638;2024-03-23T01:21:59;25.42;;;14.40;;
85912;SDS011;76451;55.848;37.638;2024-03-23T01:22:04;26.30;;;14.90;;
85912;SDS011;76451;55.848;37.638;2024-03-23T01:22:10;27.20;;;15.47;;
85912;SDS011;76451;55.848;37.638;2024-03-23T01:22:15;27.50;;;16.07;;
85912;SDS011;76451;55.848;37.638;2024-03-23T01:22:20;26.15;;;15.93;;
85912;SDS011;76451;55.848;37.638;2024-03-23T01:22:25;25.57;;;15.63;;
85912;SDS011;76451;55.848;37.638;2024-03-23T01:22:31;24.87;;;15.53;;
85912;SDS011;76451;55.848;37.638;2024-03-23T01:22:36;25.60;;;15.70;;
85912;SDS011;76451;55.848;37.638;2024-03-23T01:22:42;25.90;;;15.75;;
85912;SDS011;76451;55.848;37.638;2024-03-23T01:22:47;26.00;;;15.57;;
85912;SDS011;76451;55.848;37.638;2024-03-23T01:22:52;26.42;;;15.50;;
85912;SDS011;76451;55.848;37.638;2024-03-23T01:22:58;25.70;;;15.23;;
85912;SDS011;76451;55.848;37.638;2024-03-23T01:23:03;25.43;;;15.27;;
85912;SDS011;76451;55.848;37.638;2024-03-23T01:23:08;24.30;;;14.63;;
85912;SDS011;76451;55.848;37.638;2024-03-23T01:23:14;22.38;;;13.57;;
85912;SDS011;76451;55.848;37.638;2024-03-23T01:23:19;21.13;;;12.83;;
85912;SDS011;76451;55.848;37.638;2024-03-23T01:23:24;22.77;;;13.47;;
85912;SDS011;76451;55.848;37.638;2024-03-23T01:23:29;24.73;;;13.68;;
85912;SDS011;76451;55.848;37.638;2024-03-23T01:23:35;25.23;;;13.73;;
85912;SDS011;76451;55.848;37.638;2024-03-23T01:23:40;26.57;;;14.00;;
85912;SDS011;76451;55.848;37.638;2024-03-23T01:23:45;28.10;;;15.37;;
85912;SDS011;76451;55.848;37.638;2024-03-23T01:23:51;30.05;;;15.68;;
85912;SDS011;76451;55.848;37.638;2024-03-23T01:23:56;29.10;;;15.27;;
85912;SDS011;76451;55.848;37.638;2024-03-23T01:24:01;28.37;;;15.03;;
85912;SDS011;76451;55.848;37.638;2024-03-23T01:24:06;28.37;;;14.90;;
85912;SDS011;76451;55.848;37.638;2024-03-23T01:24:14;29.14;;;14.84;;
85912;SDS011;76451;55.848;37.638;2024-03-23T01:24:19;28.77;;;14.30;;
85912;SDS011;76451;55.848;37.638;2024-03-23T01:24:25;27.67;;;14.47;;
85912;SDS011;76451;55.848;37.638;2024-03-23T01:24:30;27.35;;;14.32;;
85912;SDS011;76451;55.848;37.638;2024-03-23T01:24:35;27.40;;;14.47;;